Barry, Illinois
Current Conditions -  °F | °C
As of 5:55 AM on Monday 22 Dec 2014 (Local Time) from KPPQ Reporting Station
Overcast Overcast  
Wind Chill: 33°   Ceiling: 4400
Heat Index: 39°   Visibility: 10mi
Dew Point: 33°   Wind: 9mph
Humidity: 79%   Direction: 120°ESE
Pressure: 29.79"   Gusts: NA
Location:  39.69°N, 91.04°W
Report Text: KPPQ 221155Z AUTO 12008KT 10SM BKN044 OVC050 04/01 A2979 RMK AO2 T00400007 10045 20040
Loading
Personal Weather Stations






























Interactive Weather Map New forecast layout! Learn more

10-Day Weather Forecast

Advertisements
Track Severe Weather on mobile